Stormwatcher's Retreat Logo




                  Temp     Hi    Low   Out    Dew  Wind  Wind   Wind    Hi    Hi   Wind   Heat    THW   THSW                Rain  Solar   Solar Hi Solar   UV    UV    Hi     Heat    Cool    In     In    In     In     In   In Air          Wind  Wind    ISS   Arc.
  Date    Time     Out   Temp   Temp   Hum    Pt. Speed   Dir    Run Speed   Dir  Chill  Index  Index  Index   Bar    Rain  Rate   Rad.  Energy    Rad.  Index  Dose   UV     D-D     D-D    Temp   Hum    Dew   Heat    EMC Density     ET   Samp   Tx   Recept  Int.
------------------------------------------------------------------------------------------------------------------------------------------------------------------------------------------------------------------------------------------------------------------------
 2/22/20 12:10a   45.3   45.7   45.3    46   25.7   3.0   ESE   0.50   7.0   ESE   44.4   44.0   43.1   39.0  30.202  0.00  0.00     0     0.00      0     0.0  0.00   0.0   0.137   0.000   69.9    44   47.0   67.6   8.35  .0748    0.000   209    5    100.0   10 
 2/22/20 12:20a   45.0   45.3   45.0    46   25.4   3.0   ESE   0.50   6.0   ESE   44.0   43.7   42.7   38.6  30.207  0.00  0.00     0     0.00      0     0.0  0.00   0.0   0.139   0.000   69.8    44   46.9   67.6   8.35  .0749    0.000   210    5    100.0   10 
 2/22/20 12:30a   44.6   45.0   44.6    46   25.1   1.0   ESE   0.17   2.0   ESE   44.6   43.3   43.3   39.2  30.214  0.00  0.00     0     0.00      0     0.0  0.00   0.0   0.142   0.000   69.7    44   46.8   67.5   8.35  .0749    0.000   211    5    100.0   10 
 2/22/20 12:40a   44.4   44.6   44.4    47   25.4   0.0     E   0.00   3.0     E   44.4   43.2   43.2   39.1  30.214  0.00  0.00     0     0.00      0     0.0  0.00   0.0   0.143   0.000   69.6    44   46.7   67.4   8.35  .0749    0.000   210    5    100.0   10 
 2/22/20 12:50a   44.5   44.5   44.4    47   25.5   1.0     E   0.17   3.0     E   44.5   43.3   43.3   39.2  30.219  0.00  0.00     0     0.00      0     0.0  0.00   0.0   0.142   0.000   69.5    44   46.6   67.4   8.35  .0749    0.000   213    5    100.0   10 
 2/22/20  1:00a   45.2   45.2   44.5    47   26.1   1.0     E   0.17   3.0     E   45.2   44.0   44.0   39.9  30.217  0.00  0.00     0     0.00      0     0.0  0.00   0.0   0.137   0.000   69.5    44   46.6   67.4   8.35  .0749    0.002   211    5    100.0   10 
 2/22/20  1:10a   45.9   45.9   45.2    47   26.8   3.0   ENE   0.50   8.0   ENE   45.1   44.7   43.9   39.8  30.220  0.00  0.00     0     0.00      0     0.0  0.00   0.0   0.133   0.000   69.4    44   46.5   67.3   8.35  .0750    0.000   213    5    100.0   10 
 2/22/20  1:20a   46.3   46.3   45.9    46   26.6   2.0   ENE   0.33   5.0   ENE   46.3   45.0   45.0   40.9  30.216  0.00  0.00     0     0.00      0     0.0  0.00   0.0   0.130   0.000   69.4    44   46.5   67.3   8.35  .0750    0.000   212    5    100.0   10 
 2/22/20  1:30a   46.4   46.4   46.3    46   26.7   2.0     E   0.33   6.0     E   46.4   45.1   45.1   41.0  30.217  0.00  0.00     0     0.00      0     0.0  0.00   0.0   0.129   0.000   69.3    44   46.4   67.2   8.35  .0750    0.000   209    5    100.0   10 
 2/22/20  1:40a   46.3   46.4   46.3    46   26.6   1.0     E   0.17   3.0     E   46.3   45.0   45.0   40.9  30.222  0.00  0.00     0     0.00      0     0.0  0.00   0.0   0.130   0.000   69.2    44   46.4   67.1   8.35  .0750    0.000   213    5    100.0   10 
 2/22/20  1:50a   46.1   46.3   46.1    45   25.9   1.0   ENE   0.17   4.0   ENE   46.1   44.8   44.8   40.7  30.225  0.00  0.00     0     0.00      0     0.0  0.00   0.0   0.131   0.000   69.2    44   46.4   67.1   8.35  .0750    0.000   210    5    100.0   10 
 2/22/20  2:00a   46.1   46.1   46.0    45   25.9   1.0   ENE   0.17   4.0   ENE   46.1   44.8   44.8   40.7  30.226  0.00  0.00     0     0.00      0     0.0  0.00   0.0   0.131   0.000   69.1    44   46.3   67.1   8.35  .0750    0.002   212    5    100.0   10 
 2/22/20  2:10a   46.0   46.1   46.0    45   25.8   2.0   ENE   0.33   3.0   ENE   46.0   44.7   44.7   40.6  30.225  0.00  0.00     0     0.00      0     0.0  0.00   0.0   0.132   0.000   69.0    44   46.2   67.0   8.35  .0750    0.000   212    5    100.0   10 
 2/22/20  2:20a   46.0   46.0   46.0    45   25.8   2.0   ENE   0.33   5.0    NE   46.0   44.7   44.7   40.6  30.225  0.00  0.00     0     0.00      0     0.0  0.00   0.0   0.132   0.000   69.0    44   46.2   67.0   8.35  .0750    0.000   214    5    100.0   10 
 2/22/20  2:30a   46.0   46.0   46.0    45   25.8   2.0     E   0.33   4.0     E   46.0   44.7   44.7   40.6  30.221  0.00  0.00     0     0.00      0     0.0  0.00   0.0   0.132   0.000   68.9    44   46.1   66.9   8.35  .0750    0.000   213    5    100.0   10 
 2/22/20  2:40a   45.9   46.0   45.9    45   25.7   2.0     E   0.33   4.0    NE   45.9   44.6   44.6   40.5  30.218  0.00  0.00     0     0.00      0     0.0  0.00   0.0   0.133   0.000   68.8    44   46.0   66.8   8.35  .0751    0.000   211    5    100.0   10 
 2/22/20  2:50a   45.6   45.9   45.6    45   25.5   2.0     E   0.33   4.0     E   45.6   44.3   44.3   40.2  30.215  0.00  0.00     0     0.00      0     0.0  0.00   0.0   0.135   0.000   68.7    44   45.9   66.7   8.35  .0751    0.000   214    5    100.0   10 
 2/22/20  3:00a   45.2   45.6   45.2    45   25.1   2.0     E   0.33   4.0     E   45.2   43.9   43.9   39.8  30.214  0.00  0.00     0     0.00      0     0.0  0.00   0.0   0.137   0.000   68.6    44   45.8   66.6   8.35  .0751    0.002   212    5    100.0   10 
 2/22/20  3:10a   44.8   45.2   44.8    45   24.7   3.0     E   0.50   7.0     E   43.8   43.5   42.5   38.4  30.214  0.00  0.00     0     0.00      0     0.0  0.00   0.0   0.140   0.000   68.6    44   45.8   66.6   8.35  .0751    0.000   212    5    100.0   10 
 2/22/20  3:20a   44.2   44.8   44.2    45   24.2   2.0   ESE   0.33   3.0   ESE   44.2   42.9   42.9   38.8  30.208  0.00  0.00     0     0.00      0     0.0  0.00   0.0   0.144   0.000   68.5    44   45.7   66.5   8.35  .0751    0.000   212    5    100.0   10 
 2/22/20  3:30a   43.6   44.2   43.6    46   24.2   3.0   ESE   0.50   6.0   ESE   42.5   42.3   41.2   37.1  30.203  0.00  0.00     0     0.00      0     0.0  0.00   0.0   0.149   0.000   68.4    44   45.6   66.4   8.35  .0751    0.000   212    5    100.0   10 
 2/22/20  3:40a   43.4   43.6   43.4    46   24.0   4.0   ESE   0.67   6.0   ESE   41.2   42.1   39.9   35.7  30.196  0.00  0.00     0     0.00      0     0.0  0.00   0.0   0.150   0.000   68.3    44   45.5   66.4   8.35  .0751    0.000   214    5    100.0   10 
 2/22/20  3:50a   43.1   43.3   43.1    47   24.2   3.0   ESE   0.50   4.0   ESE   41.9   41.9   40.7   36.6  30.199  0.00  0.00     0     0.00      0     0.0  0.00   0.0   0.152   0.000   68.2    44   45.4   66.3   8.35  .0751    0.000   212    5    100.0   10 
 2/22/20  4:00a   42.8   43.1   42.8    47   23.9   3.0   ESE   0.50   4.0   ESE   41.6   41.6   40.4   36.2  30.202  0.00  0.00     0     0.00      0     0.0  0.00   0.0   0.154   0.000   68.2    44   45.4   66.3   8.35  .0751    0.002   212    5    100.0   10 
 2/22/20  4:10a   42.7   42.8   42.7    47   23.8   3.0   ESE   0.50   4.0   ESE   41.4   41.5   40.2   36.0  30.201  0.00  0.00     0     0.00      0     0.0  0.00   0.0   0.155   0.000   68.1    44   45.4   66.2   8.35  .0751    0.000   213    5    100.0   10 
 2/22/20  4:20a   42.6   42.7   42.6    47   23.8   3.0   ESE   0.50   4.0   ESE   41.3   41.4   40.1   35.9  30.203  0.00  0.00     0     0.00      0     0.0  0.00   0.0   0.156   0.000   68.0    44   45.3   66.1   8.35  .0752    0.000   210    5    100.0   10 
 2/22/20  4:30a   42.5   42.6   42.5    48   24.2   3.0   ESE   0.50   6.0   ESE   41.2   41.3   40.0   35.9  30.202  0.00  0.00     0     0.00      0     0.0  0.00   0.0   0.156   0.000   68.0    43   44.7   66.0   8.25  .0752    0.000   212    5    100.0   10 
 2/22/20  4:40a   42.7   42.7   42.5    48   24.4   3.0   ESE   0.50   7.0   ESE   41.4   41.5   40.2   36.1  30.200  0.00  0.00     0     0.00      0     0.0  0.00   0.0   0.155   0.000   67.9    44   45.2   66.0   8.35  .0752    0.000   213    5    100.0   10 
 2/22/20  4:50a   42.5   42.7   42.5    48   24.2   3.0   ESE   0.50   6.0   ESE   41.2   41.3   40.0   35.9  30.201  0.00  0.00     0     0.00      0     0.0  0.00   0.0   0.156   0.000   67.8    43   44.5   65.7   8.25  .0752    0.000   213    5    100.0   10 
 2/22/20  5:00a   42.1   42.5   42.1    48   23.8   2.0   ESE   0.33   3.0   ESE   42.1   41.0   41.0   36.8  30.202  0.00  0.00     0     0.00      0     0.0  0.00   0.0   0.159   0.000   67.7    43   44.4   65.6   8.25  .0752    0.002   211    5    100.0   10 
 2/22/20  5:10a   41.8   42.1   41.8    48   23.5   2.0   ESE   0.33   3.0   ESE   41.8   40.7   40.7   36.5  30.204  0.00  0.00     0     0.00      0     0.0  0.00   0.0   0.161   0.000   67.7    43   44.4   65.6   8.25  .0752    0.000   211    5    100.0   10 
 2/22/20  5:20a   41.6   41.8   41.6    48   23.3   2.0   ESE   0.33   4.0   ESE   41.6   40.5   40.5   36.3  30.207  0.00  0.00     0     0.00      0     0.0  0.00   0.0   0.163   0.000   67.6    43   44.3   65.5   8.25  .0752    0.000   211    5    100.0   10 
 2/22/20  5:30a   41.7   41.7   41.5    48   23.4   2.0   ESE   0.33   7.0     E   41.7   40.6   40.6   36.4  30.207  0.00  0.00     0     0.00      0     0.0  0.00   0.0   0.162   0.000   67.5    43   44.2   65.4   8.25  .0753    0.000   212    5    100.0   10 
 2/22/20  5:40a   41.7   41.7   41.6    48   23.4   2.0   ESE   0.33   4.0   ESE   41.7   40.6   40.6   36.4  30.207  0.00  0.00     0     0.00      0     0.0  0.00   0.0   0.162   0.000   67.4    43   44.1   65.3   8.25  .0753    0.000   211    5    100.0   10 
 2/22/20  5:50a   41.6   41.7   41.6    48   23.3   2.0   ESE   0.33   3.0   ESE   41.6   40.5   40.5   36.3  30.207  0.00  0.00     0     0.00      0     0.0  0.00   0.0   0.163   0.000   67.3    43   44.0   65.2   8.25  .0753    0.000   211    5    100.0   10 
 2/22/20  6:00a   41.7   41.7   41.5    48   23.4   2.0   ESE   0.33   3.0   ESE   41.7   40.6   40.6   36.4  30.208  0.00  0.00     0     0.00      0     0.0  0.00   0.0   0.162   0.000   67.3    43   44.0   65.2   8.25  .0753    0.002   212    5    100.0   10 
 2/22/20  6:10a   41.8   41.8   41.7    49   24.0   2.0   ESE   0.33   3.0   ESE   41.8   40.7   40.7   36.6  30.209  0.00  0.00     0     0.00      0     0.0  0.00   0.0   0.161   0.000   67.3    44   44.6   65.3   8.35  .0753    0.000   213    5    100.0   10 
 2/22/20  6:20a   41.7   41.8   41.7    48   23.4   2.0   ESE   0.33   4.0   ESE   41.7   40.6   40.6   36.4  30.206  0.00  0.00     0     0.00      0     0.0  0.00   0.0   0.162   0.000   67.4    44   44.7   65.4   8.35  .0753    0.000   213    5    100.0   10 
 2/22/20  6:30a   41.6   41.7   41.6    49   23.8   2.0   ESE   0.33   4.0    SE   41.6   40.5   40.5   36.3  30.208  0.00  0.00     0     0.00      0     0.0  0.00   0.0   0.163   0.000   67.6    44   44.9   65.6   8.35  .0752    0.000   212    5    100.0   10 
 2/22/20  6:40a   41.7   41.7   41.6    49   23.9   2.0   ESE   0.33   4.0   ESE   41.7   40.6   40.6   36.4  30.208  0.00  0.00     0     0.00      0     0.0  0.00   0.0   0.162   0.000   67.9    44   45.2   66.0   8.35  .0752    0.000   212    5    100.0   10 
 2/22/20  6:50a   41.7   41.8   41.6    49   23.9   2.0   ESE   0.33   4.0   ESE   41.7   40.6   40.6   36.4  30.210  0.00  0.00     0     0.00      0     0.0  0.00   0.0   0.162   0.000   68.2    44   45.4   66.3   8.35  .0751    0.000   211    5    100.0   10 
 2/22/20  7:00a   42.0   42.0   41.8    49   24.2   2.0   ESE   0.33   7.0     E   42.0   40.9   40.9   36.8  30.210  0.00  0.00     0     0.00      0     0.0  0.00   0.0   0.160   0.000   68.5    44   45.7   66.5   8.35  .0751    0.001   211    5    100.0   10 
 2/22/20  7:10a   42.1   42.2   42.0    48   23.8   1.0   ESE   0.17   3.0   ESE   42.1   41.0   41.0   36.9  30.211  0.00  0.00     4     0.06      7     0.0  0.00   0.0   0.159   0.000   68.7    44   45.9   66.7   8.35  .0751    0.000   210    5    100.0   10 
 2/22/20  7:20a   42.0   42.1   42.0    49   24.2   2.0   ESE   0.33   3.0   ESE   42.0   40.9   40.9   37.0  30.210  0.00  0.00    11     0.16     14     0.0  0.00   0.0   0.160   0.000   68.8    44   46.0   66.8   8.35  .0750    0.000   212    5    100.0   10 
 2/22/20  7:30a   41.9   42.0   41.9    49   24.1   2.0   ESE   0.33   4.0   ESE   41.9   40.8   40.8   37.1  30.213  0.00  0.00    18     0.26     21     0.0  0.00   0.0   0.160   0.000   68.9    44   46.1   66.9   8.35  .0750    0.000   211    5    100.0   10 
 2/22/20  7:40a   41.7   41.9   41.7    49   23.9   2.0   ESE   0.33   4.0   ESE   41.7   40.6   40.6   36.9  30.218  0.00  0.00    23     0.33     26     0.0  0.00   0.0   0.162   0.000   68.9    44   46.1   66.9   8.35  .0750    0.000   213    5    100.0   10 
 2/22/20  7:50a   41.8   41.8   41.7    49   24.0   2.0   ESE   0.33   4.0   ESE   41.8   40.7   40.7   37.2  30.224  0.00  0.00    30     0.43     35     0.0  0.00   0.0   0.161   0.000   69.0    44   46.2   67.0   8.35  .0750    0.000   213    5    100.0   10 
 2/22/20  8:00a   41.8   41.8   41.7    49   24.0   2.0   ESE   0.33   3.0   ESE   41.8   40.7   40.7   37.6  30.229  0.00  0.00    48     0.69     63     1.1  0.08   5.0   0.161   0.000   69.0    44   46.2   67.0   8.35  .0751    0.001   213    5    100.0   10 
 2/22/20  8:10a   43.5   43.5   41.8    49   25.6   3.0     E   0.50   8.0     E   42.3   42.4   41.2   38.5  30.234  0.00  0.00    66     0.95     70     5.0  0.36   5.0   0.149   0.000   69.1    44   46.3   67.1   8.35  .0750    0.000   211    5    100.0   10 
 2/22/20  8:20a   44.7   44.7   43.5    49   26.7   3.0     E   0.50   8.0   ENE   43.7   43.6   42.6   42.8  30.243  0.00  0.00    66     0.95     77     5.0  0.36   5.0   0.141   0.000   69.1    44   46.3   67.1   8.35  .0751    0.000   209    5    100.0   10 
 2/22/20  8:30a   45.5   45.5   44.7    48   26.9   3.0     E   0.50   9.0   ENE   44.6   44.3   43.4   44.6  30.242  0.00  0.00    91     1.30    104     5.0  0.36   5.0   0.135   0.000   69.1    44   46.3   67.1   8.35  .0751    0.000   212    5    100.0   10 
 2/22/20  8:40a   46.1   46.1   45.5    47   27.0   4.0     E   0.67  11.0   ENE   44.3   44.9   43.1   45.3  30.249  0.00  0.00   117     1.68    144     5.0  0.36   5.0   0.131   0.000   69.0    44   46.2   67.0   8.35  .0751    0.000   213    5    100.0   10 
 2/22/20  8:50a   46.6   46.6   46.1    47   27.4   3.0     E   0.50   9.0   ENE   45.9   45.4   44.7   47.9  30.248  0.00  0.00   146     2.09    199     5.0  0.36   5.0   0.128   0.000   69.0    44   46.2   67.0   8.35  .0751    0.000   212    5    100.0   10 
 2/22/20  9:00a   47.0   47.0   46.6    46   27.3   3.0     E   0.50   9.0    NE   46.3   45.7   45.0   50.9  30.249  0.00  0.00   243     3.48    285     5.0  0.36   5.0   0.125   0.000   69.0    44   46.2   67.0   8.35  .0751    0.003   212    5    100.0   10 
 2/22/20  9:10a   47.8   47.8   47.0    46   28.0   4.0     E   0.67   9.0   ENE   46.4   46.5   45.1   52.3  30.243  0.00  0.00   283     4.06    292     5.0  0.36   5.0   0.119   0.000   69.0    44   46.2   67.0   8.35  .0751    0.000   212    5    100.0   10 
 2/22/20  9:20a   48.2   48.2   47.8    45   27.8   4.0     E   0.67  10.0   ENE   46.8   46.9   45.5   53.2  30.244  0.00  0.00   305     4.37    316     4.9  0.35   4.9   0.117   0.000   69.1    44   46.3   67.1   8.35  .0751    0.000   210    5    100.0   10 
 2/22/20  9:30a   48.7   48.7   48.2    44   27.7   3.0   ENE   0.50   9.0   ENE   48.2   47.4   46.9   55.2  30.239  0.00  0.00   330     4.73    341     4.9  0.35   4.9   0.113   0.000   69.0    44   46.2   67.0   8.35  .0751    0.000   210    5    100.0   10 
 2/22/20  9:40a   49.3   49.3   48.7    43   27.7   1.0   ESE   0.17   4.0   ENE   49.3   47.9   47.9   56.7  30.243  0.00  0.00   356     5.10    367     4.9  0.35   4.9   0.109   0.000   69.1    44   46.3   67.1   8.35  .0751    0.000   213    5    100.0   10 
 2/22/20  9:50a   50.1   50.1   49.3    42   27.9   2.0   ESE   0.33   6.0   ESE   50.1   48.7   48.7   58.1  30.236  0.00  0.00   382     5.48    394     4.9  0.35   4.9   0.103   0.000   69.1    44   46.3   67.1   8.35  .0751    0.000   212    5    100.0   10 
 2/22/20 10:00a   49.9   50.2   49.9    40   26.5   4.0   ESE   0.67   9.0   ENE   48.8   48.4   47.3   57.0  30.235  0.00  0.00   404     5.79    413     4.9  0.35   4.9   0.105   0.000   69.2    44   46.4   67.1   8.35  .0750    0.007   212    5    100.0   10 
 2/22/20 10:10a   49.8   49.9   49.7    40   26.4   6.0   ESE   1.00  11.0    SE   47.5   48.3   46.0   56.0  30.226  0.00  0.00   425     6.09    434     4.9  0.35   4.9   0.106   0.000   69.3    44   46.4   67.2   8.35  .0750    0.000   212    5    100.0   10 
 2/22/20 10:20a   50.1   50.1   49.8    39   26.1   6.0   ESE   1.00  11.0     E   47.8   48.5   46.2   56.6  30.222  0.00  0.00   448     6.42    459     4.9  0.35   4.9   0.103   0.000   69.4    44   46.5   67.3   8.35  .0750    0.000   212    5    100.0   10 
 2/22/20 10:30a   50.6   50.6   50.1    38   25.9   6.0     E   1.00  11.0   ESE   48.4   48.9   46.7   57.4  30.230  0.00  0.00   468     6.71    476     4.9  0.35   4.9   0.100   0.000   69.6    44   46.7   67.4   8.35  .0750    0.000   212    5    100.0   10 
 2/22/20 10:40a   50.6   51.0   50.6    39   26.5   5.0    NE   0.83   8.0     N   48.9   48.9   47.2   58.1  30.232  0.00  0.00   483     6.92    490     4.9  0.35   4.9   0.100   0.000   69.7    44   46.8   67.5   8.35  .0749    0.000   212    5    100.0   10 
 2/22/20 10:50a   50.7   50.8   50.6    40   27.2   5.0    NE   0.83   8.0   ENE   49.0   49.1   47.4   58.5  30.229  0.00  0.00   498     7.14    517     4.9  0.35   4.9   0.099   0.000   69.7    44   46.8   67.5   8.35  .0749    0.000   212    5    100.0   10 
 2/22/20 11:00a   51.0   51.0   50.8    40   27.5   6.0    NE   1.00  10.0   NNE   48.9   49.3   47.2   58.7  30.228  0.00  0.00   520     7.45    526     4.9  0.35   4.9   0.097   0.000   69.8    44   46.9   67.6   8.35  .0749    0.011   212    5    100.0   10 
 2/22/20 11:10a   50.8   51.0   50.8    40   27.3   8.0    NE   1.33  11.0    NE   47.5   49.1   45.8   56.5  30.230  0.00  0.00   523     7.50    541     4.9  0.35   5.0   0.099   0.000   69.8    43   46.3   67.5   8.25  .0749    0.000   213    5    100.0   10 
 2/22/20 11:20a   51.1   51.1   50.8    40   27.6   7.0    NE   1.17  10.0    NE   48.5   49.4   46.8   58.2  30.225  0.00  0.00   540     7.74    550     5.0  0.36   5.0   0.097   0.000   69.9    43   46.4   67.5   8.25  .0749    0.000   211    5    100.0   10 
 2/22/20 11:30a   51.6   51.6   51.1    39   27.4   7.0    NE   1.17  11.0   ENE   49.1   49.7   47.2   59.0  30.223  0.00  0.00   557     7.98    575     5.0  0.36   5.0   0.093   0.000   70.1    43   46.6   67.7   8.25  .0749    0.000   213    5    100.0   10 
 2/22/20 11:40a   51.6   51.7   51.5    40   28.0   8.0    NE   1.33  11.0    NE   48.4   49.8   46.6   57.6  30.226  0.00  0.00   545     7.81    589     5.0  0.36   5.0   0.093   0.000   70.2    44   47.3   68.0   8.35  .0748    0.000   214    5    100.0   10 
 2/22/20 11:50a   51.7   51.7   51.5    40   28.1   8.0    NE   1.33  11.0    NE   48.5   49.9   46.7   58.6  30.222  0.00  0.00   579     8.30    582     5.0  0.36   5.0   0.092   0.000   70.3    44   47.3   68.1   8.34  .0748    0.000   211    5    100.0   10 
 2/22/20 12:00p   52.2   52.2   51.7    40   28.6   8.0    NE   1.33  11.0    NE   49.1   50.3   47.2   59.1  30.220  0.00  0.00   585     8.39    587     5.0  0.36   5.0   0.089   0.000   70.4    44   47.4   68.2   8.34  .0748    0.013   212    5    100.0   10 
 2/22/20 12:10p   52.1   52.3   52.1    39   27.9   8.0    NE   1.33  10.0   ENE   49.0   50.1   47.0   59.1  30.217  0.00  0.00   590     8.46    596     5.0  0.36   5.0   0.090   0.000   70.5    44   47.5   68.4   8.34  .0748    0.000   211    5    100.0   10 
 2/22/20 12:20p   52.7   52.7   52.1    39   28.4   7.0    NE   1.17  10.0    NE   50.4   50.6   48.3   61.0  30.212  0.00  0.00   590     8.46    599     5.0  0.36   5.0   0.085   0.000   70.5    44   47.5   68.4   8.34  .0748    0.000   213    5    100.0   10 
 2/22/20 12:30p   52.8   52.8   52.7    39   28.5   6.0    NE   1.00   9.0    NE   51.0   50.7   48.9   62.2  30.208  0.00  0.00   597     8.56    601     5.0  0.36   5.0   0.085   0.000   70.6    44   47.6   68.5   8.34  .0747    0.000   213    5    100.0   10 
 2/22/20 12:40p   52.7   53.0   52.6    39   28.4   6.0    NE   1.00  10.0   ENE   50.8   50.6   48.7   62.2  30.203  0.00  0.00   599     8.59    603     5.0  0.36   5.0   0.085   0.000   70.6    44   47.6   68.5   8.34  .0747    0.000   214    5    100.0   10 
 2/22/20 12:50p   53.2   53.2   52.7    39   28.9   6.0    NE   1.00  10.0    NE   51.4   51.0   49.2   62.9  30.199  0.00  0.00   602     8.63    605     5.0  0.36   5.0   0.082   0.000   70.7    44   47.7   68.6   8.34  .0747    0.000   212    5    100.0   10 
 2/22/20  1:00p   53.8   53.8   53.2    38   28.8   5.0    NE   0.83  10.0    NE   52.7   51.5   50.4   64.3  30.195  0.00  0.00   599     8.59    605     4.9  0.35   5.0   0.078   0.000   70.9    44   47.9   68.9   8.33  .0746    0.014   212    5    100.0   10 
 2/22/20  1:10p   53.0   53.9   53.0    38   28.0   5.0   NNE   0.83   9.0    NE   51.7   50.8   49.5   63.6  30.186  0.00  0.00   598     8.57    605     4.9  0.35   5.0   0.083   0.000   71.0    44   48.0   69.0   8.33  .0746    0.000   212    5    100.0   10 
 2/22/20  1:20p   53.1   53.2   53.0    38   28.1   5.0   NNE   0.83   8.0   NNE   51.8   50.9   49.6   63.8  30.180  0.00  0.00   591     8.47    605     5.0  0.36   5.0   0.083   0.000   71.0    44   48.0   69.0   8.33  .0746    0.000   213    5    100.0   10 
 2/22/20  1:30p   53.3   53.3   52.9    39   28.9   5.0   NNE   0.83   9.0    NE   52.1   51.1   49.9   63.9  30.177  0.00  0.00   573     8.21    587     5.0  0.36   5.0   0.081   0.000   71.1    44   48.1   69.1   8.33  .0746    0.000   211    5    100.0   10 
 2/22/20  1:40p   54.6   54.6   53.3    38   29.5   6.0    NE   1.00   9.0    NE   53.1   52.2   50.7   65.0  30.175  0.00  0.00   569     8.16    578     4.9  0.35   5.0   0.072   0.000   71.2    44   48.2   69.3   8.33  .0745    0.000   212    5    100.0   10 
 2/22/20  1:50p   55.0   55.0   54.7    37   29.2   6.0    NE   1.00   9.0    NE   53.6   52.5   51.1   64.9  30.169  0.00  0.00   539     7.73    575     4.9  0.35   4.9   0.069   0.000   71.2    44   48.2   69.3   8.33  .0745    0.000   212    5    100.0   10 
 2/22/20  2:00p   55.2   55.2   54.8    37   29.4   6.0    NE   1.00  10.0    NE   53.8   52.7   51.3   64.1  30.168  0.00  0.00   494     7.08    529     4.9  0.35   4.9   0.068   0.000   71.2    44   48.2   69.3   8.33  .0745    0.013   212    5    100.0   10 
 2/22/20  2:10p   55.6   55.7   55.2    37   29.7   6.0    NE   1.00  10.0    NE   54.3   53.0   51.7   66.5  30.167  0.00  0.00   540     7.74    561     4.9  0.35   4.9   0.065   0.000   71.3    44   48.3   69.5   8.32  .0745    0.000   212    5    100.0   10 
 2/22/20  2:20p   55.8   56.0   55.6    37   29.9   7.0    NE   1.17  10.0    NE   54.2   53.2   51.6   66.7  30.161  0.00  0.00   540     7.74    557     4.9  0.35   4.9   0.064   0.000   71.3    44   48.3   69.5   8.32  .0745    0.000   213    5    100.0   10 
 2/22/20  2:30p   55.4   56.0   55.4    37   29.5   8.0    NE   1.33  13.0    NE   53.0   52.8   50.4   64.5  30.160  0.00  0.00   509     7.30    526     4.9  0.35   4.9   0.067   0.000   71.4    44   48.3   69.6   8.32  .0745    0.000   213    5    100.0   10 
 2/22/20  2:40p   54.4   55.5   54.4    38   29.3  10.0    NE   1.67  13.0    NE   50.4   52.0   48.0   55.6  30.160  0.00  0.00   331     4.74    503     4.9  0.35   5.0   0.074   0.000   71.5    44   48.4   69.8   8.32  .0745    0.000   212    5    100.0   10 
 2/22/20  2:50p   54.0   54.3   53.9    40   30.2   8.0    NE   1.33  12.0    NE   51.3   51.8   49.1   59.8  30.157  0.00  0.00   390     5.59    434     5.0  0.36   5.0   0.076   0.000   71.6    44   48.5   69.9   8.32  .0744    0.000   213    5    100.0   10 
 2/22/20  3:00p   54.1   54.1   54.0    40   30.3   8.0    NE   1.33  13.0   NNE   51.4   51.9   49.2   61.8  30.156  0.00  0.00   429     6.15    446     5.0  0.36   5.0   0.076   0.000   71.6    44   48.5   69.9   8.32  .0744    0.013   213    5    100.0   10 
 2/22/20  3:10p   53.8   54.1   53.8    40   30.0   9.0    NE   1.50  14.0    NE   50.4   51.6   48.2   59.9  30.151  0.00  0.00   403     5.78    425     5.0  0.36   5.0   0.078   0.000   71.6    44   48.5   69.9   8.32  .0744    0.000   212    5    100.0   10 
 2/22/20  3:20p   53.8   53.8   53.5    40   30.0   8.0    NE   1.33  13.0    NE   51.1   51.6   48.9   61.6  30.145  0.00  0.00   405     5.81    478     5.0  0.36   5.0   0.078   0.000   71.7    44   48.6   70.0   8.32  .0744    0.000   213    5    100.0   10 
 2/22/20  3:30p   53.1   53.8   53.1    40   29.4  10.0    NE   1.67  14.0    NE   48.9   51.0   46.8   54.5  30.148  0.00  0.00   289     4.14    383     5.0  0.36   5.0   0.083   0.000   71.7    44   48.6   70.0   8.32  .0744    0.000   213    5    100.0   10 
 2/22/20  3:40p   53.7   53.7   53.1    41   30.5   9.0    NE   1.50  12.0    NE   50.2   51.6   48.1   60.4  30.145  0.00  0.00   382     5.48    415     5.0  0.36   5.0   0.078   0.000   71.7    44   48.6   70.0   8.32  .0744    0.000   212    5    100.0   10 
 2/22/20  3:50p   53.6   53.9   53.6    41   30.4   8.0    NE   1.33  12.0    NE   50.8   51.5   48.7   51.5  30.141  0.00  0.00   324     4.64    352     5.0  0.36   5.0   0.079   0.000   71.7    44   48.6   70.0   8.32  .0744    0.000   212    5    100.0   10 
 2/22/20  4:00p   53.7   53.7   53.4    41   30.5   9.0    NE   1.50  13.0    NE   50.2   51.6   48.1   50.9  30.141  0.00  0.00   327     4.69    341     5.0  0.36   5.0   0.078   0.000   71.7    44   48.6   70.0   8.32  .0744    0.011   213    5    100.0   10 
 2/22/20  4:10p   53.8   53.8   53.6    41   30.6   8.0    NE   1.33  12.0    NE   51.1   51.7   49.0   51.1  30.143  0.00  0.00   286     4.10    304     5.0  0.36   5.0   0.078   0.000   71.6    44   48.5   69.9   8.32  .0744    0.000   210    5    100.0   10 
 2/22/20  4:20p   53.7   53.9   53.7    40   29.9   7.0    NE   1.17  12.0   ENE   51.6   51.5   49.4   50.8  30.138  0.00  0.00   251     3.60    269     5.1  0.36   5.8   0.078   0.000   71.6    44   48.5   69.9   8.32  .0744    0.000   213    5    100.0   10 
 2/22/20  4:30p   53.7   53.8   53.6    41   30.5   7.0    NE   1.17  11.0    NE   51.6   51.6   49.5   50.1  30.141  0.00  0.00   209     3.00    251     5.7  0.41   5.9   0.078   0.000   71.6    44   48.5   69.9   8.32  .0744    0.000   212    5    100.0   10 
 2/22/20  4:40p   53.1   53.7   53.1    42   30.6   7.0    NE   1.17  11.0    NE   50.9   51.1   48.9   48.7  30.138  0.00  0.00   174     2.49    195     5.8  0.41   6.5   0.083   0.000   71.6    44   48.5   69.9   8.32  .0744    0.000   213    5    100.0   10 
 2/22/20  4:50p   53.1   53.2   53.0    42   30.6   6.0    NE   1.00  12.0    NE   51.3   51.1   49.3   49.3  30.139  0.00  0.00   185     2.65    200     6.0  0.43   6.5   0.083   0.000   71.6    45   49.1   70.0   8.45  .0744    0.000   212    5    100.0   10 
 2/22/20  5:00p   52.9   53.2   52.9    42   30.4   5.0    NE   0.83  11.0    NE   51.6   50.9   49.6   48.5  30.136  0.00  0.00   133     1.91    165     6.1  0.44   6.6   0.084   0.000   71.6    45   49.1   70.0   8.45  .0744    0.007   213    5    100.0   10 
 2/22/20  5:10p   51.8   52.8   51.8    43   30.0   8.0    NE   1.33  13.0    NE   48.7   50.1   47.0   44.8  30.134  0.00  0.00    76     1.09     95     6.1  0.44   7.7   0.092   0.000   71.5    45   49.0   69.8   8.45  .0744    0.000   213    5    100.0   10 
 2/22/20  5:20p   51.0   51.8   51.0    44   29.8   6.0   ENE   1.00  12.0    NE   48.9   49.5   47.4   44.3  30.132  0.00  0.00    42     0.60     47     0.0  0.00   0.0   0.097   0.000   71.5    45   49.0   69.8   8.45  .0744    0.000   213    5    100.0   10 
 2/22/20  5:30p   50.6   51.0   50.6    45   30.0   5.0    NE   0.83  10.0    NE   48.9   49.2   47.5   44.3  30.132  0.00  0.00    32     0.46     40     0.0  0.00   0.0   0.100   0.000   71.4    45   48.9   69.7   8.45  .0744    0.000   214    5    100.0   10 
 2/22/20  5:40p   50.3   50.6   50.3    45   29.7   4.0   ENE   0.67   8.0   ENE   49.2   48.9   47.8   44.3  30.126  0.00  0.00    23     0.33     26     0.0  0.00   0.0   0.102   0.000   71.4    45   48.9   69.7   8.45  .0744    0.000   212    5    100.0   10 
 2/22/20  5:50p   49.9   50.3   49.9    45   29.4   4.0   ENE   0.67   7.0   ENE   48.8   48.6   47.5   43.8  30.126  0.00  0.00    13     0.19     18     0.0  0.00   0.0   0.105   0.000   71.3    45   48.9   69.6   8.45  .0744    0.000   212    5    100.0   10 
 2/22/20  6:00p   49.6   49.9   49.6    46   29.6   3.0   ENE   0.50   7.0   ENE   49.2   48.3   47.9   44.0  30.135  0.00  0.00     2     0.03      7     0.0  0.00   0.0   0.107   0.000   71.2    45   48.8   69.4   8.45  .0744    0.003   212    5    100.0   10 
 2/22/20  6:10p   49.5   49.6   49.5    46   29.6   3.0   ENE   0.50   6.0     E   49.1   48.2   47.8   43.8  30.132  0.00  0.00     0     0.00      0     0.0  0.00   0.0   0.108   0.000   71.1    45   48.7   69.3   8.45  .0744    0.000   210    5    100.0   10 
 2/22/20  6:20p   49.5   49.6   49.5    46   29.6   3.0   ENE   0.50   6.0   NNE   49.1   48.2   47.8   43.8  30.136  0.00  0.00     0     0.00      0     0.0  0.00   0.0   0.108   0.000   71.1    45   48.7   69.3   8.45  .0744    0.000   211    5    100.0   10 
 2/22/20  6:30p   49.5   49.6   49.4    46   29.6   4.0   ENE   0.67   9.0     E   48.3   48.2   47.0   43.0  30.132  0.00  0.00     0     0.00      0     0.0  0.00   0.0   0.108   0.000   71.0    45   48.6   69.1   8.45  .0745    0.000   211    5    100.0   10 
 2/22/20  6:40p   49.5   49.5   49.5    46   29.6   3.0   ENE   0.50   7.0    NE   49.1   48.2   47.8   43.8  30.138  0.00  0.00     0     0.00      0     0.0  0.00   0.0   0.108   0.000   71.0    45   48.6   69.1   8.45  .0745    0.000   212    5    100.0   10 
 2/22/20  6:50p   49.5   49.6   49.5    46   29.6   3.0   ENE   0.50   6.0     E   49.1   48.2   47.8   43.8  30.147  0.00  0.00     0     0.00      0     0.0  0.00   0.0   0.108   0.000   71.0    45   48.6   69.1   8.45  .0745    0.000   211    5    100.0   10 
 2/22/20  7:00p   49.8   49.8   49.6    47   30.4   5.0    NE   0.83  11.0   NNE   48.0   48.5   46.7   42.8  30.153  0.00  0.00     0     0.00      0     0.0  0.00   0.0   0.106   0.000   71.0    45   48.6   69.1   8.45  .0745    0.001   213    5    100.0   10 
 2/22/20  7:10p   49.8   49.9   49.8    47   30.4   5.0    NE   0.83  11.0   NNE   48.0   48.5   46.7   42.8  30.152  0.00  0.00     0     0.00      0     0.0  0.00   0.0   0.106   0.000   70.9    45   48.5   69.0   8.45  .0745    0.000   210    5    100.0   10 
 2/22/20  7:20p   49.9   49.9   49.7    47   30.5   5.0    NE   0.83  11.0   NNE   48.1   48.6   46.8   42.9  30.154  0.00  0.00     0     0.00      0     0.0  0.00   0.0   0.105   0.000   70.9    45   48.5   69.0   8.45  .0745    0.000   212    5    100.0   10 
 2/22/20  7:30p   49.5   49.9   49.5    47   30.1   5.0   ENE   0.83  11.0   NNW   47.6   48.2   46.3   42.4  30.148  0.00  0.00     0     0.00      0     0.0  0.00   0.0   0.108   0.000   70.9    45   48.5   69.0   8.45  .0745    0.000   212    5    100.0   10 
 2/22/20  7:40p   49.4   49.6   49.4    47   30.0   3.0   ENE   0.50   6.0     E   49.0   48.1   47.7   43.7  30.135  0.00  0.00     0     0.00      0     0.0  0.00   0.0   0.108   0.000   70.9    45   48.5   69.0   8.45  .0745    0.000   213    5    100.0   10 
 2/22/20  7:50p   49.2   49.4   49.2    47   29.8   2.0   ENE   0.33   8.0   ENE   49.2   47.9   47.9   43.9  30.132  0.00  0.00     0     0.00      0     0.0  0.00   0.0   0.110   0.000   70.8    45   48.4   68.8   8.45  .0745    0.000   212    5    100.0   10 
 2/22/20  8:00p   49.1   49.2   49.1    47   29.7   2.0   ENE   0.33   4.0   ENE   49.1   47.8   47.8   43.8  30.128  0.00  0.00     0     0.00      0     0.0  0.00   0.0   0.110   0.000   70.8    45   48.4   68.8   8.45  .0745    0.002   212    5    100.0   10 
 2/22/20  8:10p   48.9   49.1   48.9    47   29.5   2.0    NE   0.33   5.0     E   48.9   47.6   47.6   43.6  30.127  0.00  0.00     0     0.00      0     0.0  0.00   0.0   0.112   0.000   70.7    45   48.3   68.7   8.45  .0745    0.000   212    5    100.0   10 
 2/22/20  8:20p   48.6   48.9   48.6    47   29.3   1.0     E   0.17   4.0     E   48.6   47.3   47.3   43.3  30.127  0.00  0.00     0     0.00      0     0.0  0.00   0.0   0.114   0.000   70.7    45   48.3   68.7   8.45  .0745    0.000   210    5    100.0   10 
 2/22/20  8:30p   48.2   48.6   48.2    47   28.9   3.0     E   0.50   7.0     E   47.6   46.9   46.3   42.3  30.125  0.00  0.00     0     0.00      0     0.0  0.00   0.0   0.117   0.000   70.7    45   48.3   68.7   8.45  .0745    0.000   212    5    100.0   10 
 2/22/20  8:40p   48.0   48.2   48.0    47   28.7   2.0   ESE   0.33   7.0    SE   48.0   46.7   46.7   42.7  30.122  0.00  0.00     0     0.00      0     0.0  0.00   0.0   0.118   0.000   70.6    45   48.2   68.6   8.45  .0745    0.000   212    5    100.0   10 
 2/22/20  8:50p   47.9   48.0   47.9    47   28.6   2.0   ESE   0.33   7.0   SSE   47.9   46.6   46.6   42.6  30.130  0.00  0.00     0     0.00      0     0.0  0.00   0.0   0.119   0.000   70.6    45   48.2   68.6   8.45  .0745    0.000   210    5    100.0   10 
 2/22/20  9:00p   47.9   48.0   47.8    47   28.6   1.0   ESE   0.17   5.0   ESE   47.9   46.6   46.6   42.6  30.128  0.00  0.00     0     0.00      0     0.0  0.00   0.0   0.119   0.000   70.5    45   48.1   68.4   8.45  .0745    0.002   212    5    100.0   10 
 2/22/20  9:10p   47.7   47.9   47.6    47   28.4   2.0   ESE   0.33   6.0   SSE   47.7   46.4   46.4   42.4  30.122  0.00  0.00     0     0.00      0     0.0  0.00   0.0   0.120   0.000   70.5    45   48.1   68.4   8.45  .0745    0.000   211    5    100.0   10 
 2/22/20  9:20p   47.5   47.7   47.5    47   28.3   1.0    SE   0.17   4.0    SE   47.5   46.2   46.2   42.2  30.134  0.00  0.00     0     0.00      0     0.0  0.00   0.0   0.122   0.000   70.4    45   48.0   68.3   8.45  .0746    0.000   212    5    100.0   10 
 2/22/20  9:30p   47.4   47.5   47.3    47   28.2   1.0   ESE   0.17   3.0   SSW   47.4   46.1   46.1   42.1  30.141  0.00  0.00     0     0.00      0     0.0  0.00   0.0   0.122   0.000   70.3    45   47.9   68.2   8.45  .0746    0.000   213    5    100.0   10 
 2/22/20  9:40p   47.4   47.6   47.4    47   28.2   1.0    SE   0.17   5.0   SSE   47.4   46.1   46.1   42.1  30.148  0.00  0.00     0     0.00      0     0.0  0.00   0.0   0.122   0.000   70.3    45   47.9   68.2   8.45  .0746    0.000   210    5    100.0   10 
 2/22/20  9:50p   46.9   47.4   46.9    47   27.7   1.0     S   0.17   3.0   SSE   46.9   45.6   45.6   41.6  30.155  0.00  0.00     0     0.00      0     0.0  0.00   0.0   0.126   0.000   70.2    45   47.9   68.1   8.45  .0746    0.000   212    5    100.0   10 
 2/22/20 10:00p   46.4   46.9   46.4    48   27.8   1.0     S   0.17   4.0   SSE   46.4   45.2   45.2   41.2  30.162  0.00  0.00     0     0.00      0     0.0  0.00   0.0   0.129   0.000   70.1    45   47.8   67.9   8.45  .0747    0.002   213    5    100.0   10 
 2/22/20 10:10p   46.2   46.4   46.2    48   27.6   2.0     S   0.33   4.0     S   46.2   45.0   45.0   41.0  30.161  0.00  0.00     0     0.00      0     0.0  0.00   0.0   0.131   0.000   70.1    45   47.8   67.9   8.45  .0747    0.000   212    5    100.0   10 
 2/22/20 10:20p   46.3   46.3   46.1    48   27.7   2.0     S   0.33   5.0   SSW   46.3   45.1   45.1   41.1  30.163  0.00  0.00     0     0.00      0     0.0  0.00   0.0   0.130   0.000   70.0    45   47.7   67.8   8.45  .0747    0.000   212    5    100.0   10 
 2/22/20 10:30p   46.0   46.3   46.0    48   27.4   2.0     S   0.33   4.0   SSW   46.0   44.8   44.8   40.8  30.165  0.00  0.00     0     0.00      0     0.0  0.00   0.0   0.132   0.000   70.0    45   47.7   67.8   8.45  .0747    0.000   186    5     89.9   10 
 2/22/20 10:40p   46.7   46.7   46.0    48   28.0   2.0   SSW   0.33   5.0     S   46.7   45.5   45.5   41.5  30.157  0.00  0.00     0     0.00      0     0.0  0.00   0.0   0.127   0.000   69.9    45   47.6   67.7   8.45  .0747    0.000   212    5    100.0   10 
 2/22/20 10:50p   46.4   46.9   46.4    48   27.8   2.0     S   0.33   6.0   SSW   46.4   45.2   45.2   41.2  30.151  0.00  0.00     0     0.00      0     0.0  0.00   0.0   0.129   0.000   69.8    45   47.5   67.7   8.45  .0747    0.000   211    5    100.0   10 
 2/22/20 11:00p   46.2   46.4   46.1    48   27.6   2.0     S   0.33   5.0   SSW   46.2   45.0   45.0   41.0  30.154  0.00  0.00     0     0.00      0     0.0  0.00   0.0   0.131   0.000   69.7    45   47.4   67.6   8.46  .0747    0.002   213    5    100.0   10 
 2/22/20 11:10p   46.7   46.7   46.2    48   28.0   2.0     S   0.33   5.0   SSW   46.7   45.5   45.5   41.5  30.160  0.00  0.00     0     0.00      0     0.0  0.00   0.0   0.127   0.000   69.7    45   47.4   67.6   8.46  .0747    0.000   213    5    100.0   10 
 2/22/20 11:20p   47.1   47.1   46.7    48   28.4   2.0   SSW   0.33   8.0   SSW   47.1   45.9   45.9   41.9  30.162  0.00  0.00     0     0.00      0     0.0  0.00   0.0   0.124   0.000   69.6    45   47.3   67.5   8.46  .0748    0.000   214    5    100.0   10 
 2/22/20 11:30p   48.9   48.9   47.1    48   30.1   6.0   SSW   1.00  10.0     S   46.4   47.7   45.2   41.3  30.164  0.00  0.00     0     0.00      0     0.0  0.00   0.0   0.112   0.000   69.6    45   47.3   67.5   8.46  .0748    0.000   212    5    100.0   10 
 2/22/20 11:40p   49.2   49.4   48.9    48   30.3   7.0   SSW   1.17  11.0     S   46.2   48.0   45.0   41.2  30.161  0.00  0.00     0     0.00      0     0.0  0.00   0.0   0.110   0.000   69.5    45   47.2   67.4   8.46  .0748    0.000   210    5    100.0   10 
 2/22/20 11:50p   49.0   49.2   49.0    48   30.1   6.0   SSW   1.00  12.0   SSW   46.5   47.8   45.3   41.4  30.151  0.00  0.00     0     0.00      0     0.0  0.00   0.0   0.111   0.000   69.5    45   47.2   67.4   8.46  .0748    0.000   212    5    100.0   10 
 2/23/20 12:00a   48.3   49.1   48.3    48   29.5   3.0     S   0.50   8.0     S   47.7   47.1   46.5   42.5  30.147  0.00  0.00     0     0.00      0     0.0  0.00   0.0   0.116   0.000   69.4    45   47.1   67.4   8.46  .0748    0.002   213    5    100.0   10 
 2/23/20 12:10a   48.6   48.7   48.1    49   30.3   3.0   SSW   0.50   8.0   SSW   48.1   47.4   46.9   43.0  30.143  0.00  0.00     0     0.00      0     0.0  0.00   0.0   0.114   0.000   69.4    45   47.1   67.4   8.46  .0748    0.000   211    5    100.0   10 
 2/23/20 12:20a   48.6   48.6   47.9    49   30.3   4.0     S   0.67  10.0   SSE   47.3   47.4   46.1   42.2  30.147  0.00  0.00     0     0.00      0     0.0  0.00   0.0   0.114   0.000   69.3    45   47.0   67.3   8.46  .0748    0.000   213    5    100.0   10 
 2/23/20 12:30a   48.2   49.0   48.2    48   29.4   3.0     S   0.50  10.0   SSW   47.6   47.0   46.4   42.4  30.147  0.00  0.00     0     0.00      0     0.0  0.00   0.0   0.117   0.000   69.3    45   47.0   67.3   8.46  .0748    0.000   211    5    100.0   10 
 2/23/20 12:40a   48.2   48.2   47.8    49   29.9   3.0   SSW   0.50   8.0   SSW   47.6   47.0   46.4   42.4  30.148  0.00  0.00     0     0.00      0     0.0  0.00   0.0   0.117   0.000   69.2    45   46.9   67.2   8.47  .0748    0.000   212    5    100.0   10 
 2/23/20 12:50a   47.8   48.4   47.7    48   29.0   3.0   SSW   0.50   8.0     S   47.2   46.6   46.0   42.0  30.152  0.00  0.00     0     0.00      0     0.0  0.00   0.0   0.119   0.000   69.2    45   46.9   67.2   8.47  .0748    0.000   214    5    100.0   10 
 2/23/20  1:00a   48.1   48.2   47.7    49   29.8   4.0   SSW   0.67  11.0   SSW   46.7   46.9   45.5   41.5  30.154  0.00  0.00     0     0.00      0     0.0  0.00   0.0   0.117   0.000   69.1    45   46.9   67.2   8.47  .0748    0.002   212    5    100.0   10 
 2/23/20  1:10a   49.3   49.3   48.1    48   30.4   6.0   SSW   1.00  11.0   SSW   46.9   48.1   45.7   41.8  30.149  0.00  0.00     0     0.00      0     0.0  0.00   0.0   0.109   0.000   69.1    45   46.9   67.2   8.47  .0748    0.000   212    5    100.0   10 
 2/23/20  1:20a   49.5   49.6   49.3    48   30.6   7.0   SSW   1.17  12.0   SSW   46.6   48.3   45.4   41.6  30.156  0.00  0.00     0     0.00      0     0.0  0.00   0.0   0.108   0.000   69.0    45   46.8   67.1   8.47  .0749    0.000   211    5    100.0   10 
 2/23/20  1:30a   49.8   49.8   49.6    48   30.9   9.0   SSW   1.50  17.0   SSW   45.7   48.6   44.5   40.9  30.161  0.00  0.00     0     0.00      0     0.0  0.00   0.0   0.106   0.000   68.9    45   46.7   67.0   8.47  .0749    0.000   210    5    100.0   10 
 2/23/20  1:40a   49.5   49.8   49.5    48   30.6  11.0   SSW   1.83  17.0   SSW   44.2   48.3   43.0   39.7  30.163  0.00  0.00     0     0.00      0     0.0  0.00   0.0   0.108   0.000   68.9    45   46.7   67.0   8.47  .0749    0.000   212    5    100.0   10 
 2/23/20  1:50a   49.5   49.6   49.4    48   30.6  10.0   SSW   1.67  16.0    SW   44.7   48.3   43.5   40.1  30.155  0.00  0.00     0     0.00      0     0.0  0.00   0.0   0.108   0.000   68.8    45   46.6   66.9   8.47  .0749    0.000   213    5    100.0   10 
 2/23/20  2:00a   49.5   49.5   49.2    48   30.6   9.0   SSW   1.50  15.0   SSW   45.3   48.3   44.1   40.5  30.154  0.00  0.00     0     0.00      0     0.0  0.00   0.0   0.108   0.000   68.8    45   46.6   66.9   8.47  .0749    0.004   211    5    100.0   10 
 2/23/20  2:10a   49.7   49.7   49.5    48   30.8  11.0   SSW   1.83  19.0   SSE   44.4   48.5   43.2   39.9  30.154  0.00  0.00     0     0.00      0     0.0  0.00   0.0   0.106   0.000   68.7    45   46.5   66.8   8.48  .0749    0.000   210    5    100.0   10 
 2/23/20  2:20a   49.6   49.8   49.5    48   30.7  11.0   SSW   1.83  19.0   SSE   44.3   48.4   43.1   39.8  30.156  0.00  0.00     0     0.00      0     0.0  0.00   0.0   0.107   0.000   68.6    45   46.4   66.7   8.48  .0749    0.000   214    5    100.0   10 
 2/23/20  2:30a   49.7   49.8   49.7    48   30.8  11.0   SSW   1.83  17.0   SSW   44.4   48.5   43.2   39.9  30.152  0.00  0.00     0     0.00      0     0.0  0.00   0.0   0.106   0.000   68.6    45   46.4   66.7   8.48  .0749    0.000   211    5    100.0   10 
 2/23/20  2:40a   49.7   49.8   49.6    47   30.3  11.0   SSW   1.83  22.0   SSW   44.4   48.4   43.1   39.8  30.151  0.00  0.00     0     0.00      0     0.0  0.00   0.0   0.106   0.000   68.5    45   46.3   66.6   8.48  .0749    0.000   212    5    100.0   10 
 2/23/20  2:50a   49.9   50.0   49.7    47   30.5  12.0   SSW   2.00  18.0    SW   44.2   48.6   42.9   39.7  30.149  0.00  0.00     0     0.00      0     0.0  0.00   0.0   0.105   0.000   68.5    45   46.3   66.6   8.48  .0749    0.000   211    5    100.0   10 
 2/23/20  3:00a   49.7   49.8   49.7    47   30.3  13.0   SSW   2.17  24.0   SSW   43.5   48.4   42.2   39.1  30.145  0.00  0.00     0     0.00      0     0.0  0.00   0.0   0.106   0.000   68.4    45   46.2   66.6   8.48  .0749    0.004   213    5    100.0   10 
 2/23/20  3:10a   49.7   49.9   49.7    47   30.3  13.0   SSW   2.17  25.0   SSE   43.5   48.4   42.2   39.1  30.144  0.00  0.00     0     0.00      0     0.0  0.00   0.0   0.106   0.000   68.3    45   46.1   66.5   8.48  .0749    0.000   212    5    100.0   10 
 2/23/20  3:20a   49.9   49.9   49.7    47   30.5  15.0   SSW   2.50  26.0   SSW   43.1   48.6   41.8   38.9  30.145  0.00  0.00     0     0.00      0     0.0  0.00   0.0   0.105   0.000   68.3    45   46.1   66.5   8.48  .0749    0.000   213    5    100.0   10 
 2/23/20  3:30a   50.2   50.2   49.9    48   31.2  17.0   SSW   2.83  25.0     S   42.8   48.9   41.5   38.8  30.139  0.00  0.00     0     0.00      0     0.0  0.00   0.0   0.103   0.000   68.2    45   46.0   66.4   8.49  .0749    0.000   212    5    100.0   10 
 2/23/20  3:40a   50.1   50.2   50.1    48   31.2  19.0   SSW   3.17  28.0     S   42.2   48.8   40.9   38.3  30.135  0.00  0.00     0     0.00      0     0.0  0.00   0.0   0.103   0.000   68.2    45   46.0   66.4   8.49  .0749    0.000   212    5    100.0   10 
 2/23/20  3:50a   50.3   50.3   50.1    48   31.3  18.0   SSW   3.00  29.0   SSE   42.7   49.0   41.4   38.7  30.134  0.00  0.00     0     0.00      0     0.0  0.00   0.0   0.102   0.000   68.1    45   45.9   66.3   8.49  .0749    0.000   212    5    100.0   10 
 2/23/20  4:00a   50.2   50.2   50.1    49   31.8  20.0   SSW   3.33  29.0   SSW   42.0   49.0   40.8   38.3  30.136  0.00  0.00     0     0.00      0     0.0  0.00   0.0   0.103   0.000   68.1    45   45.9   66.3   8.49  .0750    0.006   211    5    100.0   10 
 2/23/20  4:10a   50.3   50.3   50.2    49   31.8  19.0   SSW   3.17  28.0   SSE   42.4   49.0   41.1   38.5  30.134  0.00  0.00     0     0.00      0     0.0  0.00   0.0   0.102   0.000   68.0    45   45.9   66.2   8.49  .0750    0.000   211    5    100.0   10 
 2/23/20  4:20a   50.3   50.4   50.2    49   31.8  20.0   SSW   3.33  31.0   SSW   42.2   49.0   40.9   38.4  30.134  0.00  0.00     0     0.00      0     0.0  0.00   0.0   0.102   0.000   68.0    45   45.9   66.2   8.49  .0750    0.000   209    5    100.0   10 
 2/23/20  4:30a   50.3   50.5   50.2    49   31.8  21.0   SSW   3.50  31.0   SSW   41.9   49.0   40.6   38.1  30.128  0.00  0.00     0     0.00      0     0.0  0.00   0.0   0.102   0.000   67.9    45   45.8   66.1   8.49  .0750    0.000   212    5    100.0   10 
 2/23/20  4:40a   50.4   50.4   50.3    49   31.9  19.0   SSW   3.17  28.0   SSW   42.5   49.1   41.2   38.6  30.129  0.00  0.00     0     0.00      0     0.0  0.00   0.0   0.101   0.000   67.9    45   45.8   66.1   8.49  .0750    0.000   211    5    100.0   10 
Email: AdamSPAM@StormwatchersRetreat.com (To send me email remove the word 'SPAM' from my email address.)